createdAt,value
2018-08-25T00:02:09.973Z,1.70
2018-08-25T00:04:39.749Z,1.73
2018-08-25T00:07:09.414Z,1.50
2018-08-25T00:09:39.245Z,1.53
2018-08-25T00:12:08.946Z,1.10
2018-08-25T00:14:38.606Z,1.33
2018-08-25T00:17:08.316Z,1.10
2018-08-25T00:19:37.979Z,1.50
2018-08-25T00:22:08.207Z,1.00
2018-08-25T00:24:37.901Z,1.47
2018-08-25T00:27:07.891Z,1.67
2018-08-25T00:29:37.504Z,1.50
2018-08-25T00:32:07.182Z,1.10
2018-08-25T00:34:37.652Z,1.40
2018-08-25T00:37:08.501Z,1.70
2018-08-25T00:39:39.053Z,1.97
2018-08-25T00:42:09.851Z,1.50
2018-08-25T00:44:39.561Z,1.10
2018-08-25T00:47:09.234Z,1.87
2018-08-25T00:49:38.957Z,1.43
2018-08-25T00:52:08.785Z,1.93
2018-08-25T00:54:38.441Z,1.33
2018-08-25T00:57:09.442Z,1.03
2018-08-25T00:59:39.202Z,1.17
2018-08-25T01:02:08.910Z,1.40
2018-08-25T01:04:39.711Z,2.30
2018-08-25T01:07:09.449Z,1.50
2018-08-25T01:09:39.105Z,1.63
2018-08-25T01:12:08.749Z,1.27
2018-08-25T01:14:38.414Z,1.60
2018-08-25T01:17:08.092Z,2.13
2018-08-25T01:19:37.719Z,1.63
2018-08-25T01:22:07.390Z,1.20
2018-08-25T01:24:37.064Z,1.47
2018-08-25T01:27:06.759Z,1.17
2018-08-25T01:29:36.376Z,1.40
2018-08-25T01:32:06.064Z,1.10
2018-08-25T01:34:36.481Z,1.30
2018-08-25T01:37:06.963Z,1.60
2018-08-25T01:39:36.667Z,1.57
2018-08-25T01:42:06.363Z,2.10
2018-08-25T01:44:35.963Z,1.60
2018-08-25T01:47:05.655Z,1.60
2018-08-25T01:49:37.007Z,1.33
2018-08-25T01:52:08.459Z,1.57
2018-08-25T01:54:38.131Z,1.83
2018-08-25T01:57:07.823Z,2.17
2018-08-25T01:59:37.493Z,2.20
2018-08-25T02:02:07.151Z,2.67
2018-08-25T02:04:36.799Z,2.43
2018-08-25T02:07:06.450Z,2.57
2018-08-25T02:09:37.067Z,2.77
2018-08-25T02:12:06.790Z,2.23
2018-08-25T02:14:36.413Z,2.20
2018-08-25T02:17:08.327Z,2.17
2018-08-25T02:19:38.087Z,1.90
2018-08-25T02:22:07.735Z,1.80
2018-08-25T02:24:37.384Z,2.57
2018-08-25T02:27:07.075Z,1.70
2018-08-25T02:29:36.722Z,2.07
2018-08-25T02:32:06.636Z,1.90
2018-08-25T02:34:36.296Z,2.00
2018-08-25T02:37:06.215Z,1.77
2018-08-25T02:39:35.874Z,2.13
2018-08-25T02:42:05.566Z,1.63
2018-08-25T02:44:35.334Z,1.50
2018-08-25T02:47:05.228Z,1.53
2018-08-25T02:49:34.842Z,1.57
2018-08-25T02:52:04.465Z,1.60
2018-08-25T02:54:34.124Z,1.07
2018-08-25T02:57:03.736Z,2.30
2018-08-25T02:59:33.375Z,2.30
2018-08-25T03:02:03.122Z,2.00
2018-08-25T03:04:33.659Z,1.50
2018-08-25T03:07:03.234Z,1.50
2018-08-25T03:09:33.124Z,1.47
2018-08-25T03:12:02.783Z,1.57
2018-08-25T03:14:33.553Z,1.77
2018-08-25T03:17:03.631Z,1.23
2018-08-25T03:19:33.695Z,1.60
2018-08-25T03:22:03.331Z,1.70
2018-08-25T03:24:33.014Z,1.50
2018-08-25T03:27:02.694Z,1.50
2018-08-25T03:29:32.342Z,1.37
2018-08-25T03:32:01.970Z,1.47
2018-08-25T03:34:31.606Z,1.70
2018-08-25T03:37:01.259Z,1.80
2018-08-25T03:39:30.862Z,1.70
2018-08-25T03:42:00.474Z,2.03
2018-08-25T03:44:30.546Z,2.33
2018-08-25T03:47:00.191Z,2.13
2018-08-25T03:49:29.831Z,2.37
2018-08-25T03:51:59.463Z,2.77
2018-08-25T03:54:29.126Z,3.40
2018-08-25T03:56:59.073Z,4.03
2018-08-25T03:59:28.666Z,2.80
2018-08-25T04:01:58.281Z,3.07
2018-08-25T04:04:27.904Z,2.27
2018-08-25T04:06:57.562Z,2.27
2018-08-25T04:09:27.175Z,2.10
2018-08-25T04:11:56.833Z,3.13
2018-08-25T04:14:26.425Z,1.90
2018-08-25T04:16:56.070Z,3.13
2018-08-25T04:19:25.690Z,2.27
2018-08-25T04:21:55.345Z,2.50
2018-08-25T04:24:24.963Z,2.27
2018-08-25T04:26:54.595Z,2.90
2018-08-25T04:29:24.216Z,2.60
2018-08-25T04:31:53.843Z,3.43
2018-08-25T04:34:23.730Z,3.77
2018-08-25T04:36:54.355Z,3.13
2018-08-25T04:39:23.992Z,3.93
2018-08-25T04:41:53.628Z,3.83
2018-08-25T04:44:23.314Z,3.27
2018-08-25T04:46:52.995Z,3.70
2018-08-25T04:49:22.595Z,3.57
2018-08-25T04:51:52.613Z,4.37
2018-08-25T04:54:22.219Z,3.30
2018-08-25T04:56:52.145Z,3.13
2018-08-25T04:59:21.752Z,3.00
2018-08-25T05:01:51.427Z,3.33
2018-08-25T05:04:21.063Z,2.60
2018-08-25T05:06:50.649Z,2.77
2018-08-25T05:09:20.279Z,2.70
2018-08-25T05:11:49.934Z,3.00
2018-08-25T05:14:19.554Z,3.27
2018-08-25T05:16:49.162Z,3.00
2018-08-25T05:19:18.774Z,3.50
2018-08-25T05:21:48.475Z,3.80
2018-08-25T05:24:18.065Z,4.07
2018-08-25T05:26:47.772Z,3.20
2018-08-25T05:29:17.423Z,3.30
2018-08-25T05:31:47.055Z,3.07
2018-08-25T05:34:16.670Z,2.23
2018-08-25T05:36:47.051Z,1.90
2018-08-25T05:39:16.701Z,2.13
2018-08-25T05:41:46.333Z,2.57
2018-08-25T05:44:15.973Z,3.50
2018-08-25T05:46:46.049Z,2.90
2018-08-25T05:49:15.767Z,2.80
2018-08-25T05:51:45.447Z,2.97
2018-08-25T05:54:15.588Z,3.40
2018-08-25T05:56:45.298Z,3.37
2018-08-25T05:59:15.011Z,3.13
2018-08-25T06:01:44.722Z,3.13
2018-08-25T06:04:14.354Z,3.43
2018-08-25T06:06:44.136Z,2.93
2018-08-25T06:09:13.780Z,3.63
2018-08-25T06:11:43.850Z,3.03
2018-08-25T06:14:13.591Z,3.00
2018-08-25T06:16:44.127Z,3.30
2018-08-25T06:19:13.813Z,2.73
2018-08-25T06:21:43.400Z,3.40
2018-08-25T06:24:13.111Z,3.03
2018-08-25T06:26:42.979Z,3.30
2018-08-25T06:29:13.546Z,3.70
2018-08-25T06:31:43.135Z,3.47
2018-08-25T06:34:12.746Z,4.13
2018-08-25T06:36:43.387Z,4.17
2018-08-25T06:39:13.023Z,3.90
2018-08-25T06:41:42.635Z,4.10
2018-08-25T06:44:12.294Z,3.37
2018-08-25T06:46:42.001Z,3.93
2018-08-25T06:49:11.684Z,4.37
2018-08-25T06:51:42.111Z,4.77
2018-08-25T06:54:11.741Z,4.13
2018-08-25T06:56:41.388Z,4.00
2018-08-25T06:59:11.018Z,5.10
2018-08-25T07:01:41.671Z,4.43
2018-08-25T07:04:11.356Z,4.93
2018-08-25T07:06:41.025Z,4.50
2018-08-25T07:09:12.317Z,3.90
2018-08-25T07:11:42.502Z,4.50
2018-08-25T07:14:12.388Z,3.57
2018-08-25T07:16:42.039Z,3.73
2018-08-25T07:19:12.016Z,3.37
2018-08-25T07:21:45.794Z,3.23
2018-08-25T07:24:16.454Z,2.83
2018-08-25T07:26:46.246Z,3.40
2018-08-25T07:29:15.866Z,3.60
2018-08-25T07:31:46.083Z,3.40
2018-08-25T07:34:15.715Z,3.93
2018-08-25T07:36:45.378Z,4.00
2018-08-25T07:39:14.998Z,4.80
2018-08-25T07:41:44.711Z,4.70
2018-08-25T07:44:14.870Z,4.47
2018-08-25T07:46:44.795Z,4.77
2018-08-25T07:49:14.448Z,5.77
2018-08-25T07:51:44.098Z,5.90
2018-08-25T07:54:14.622Z,6.40
2018-08-25T07:56:45.390Z,7.07
2018-08-25T07:59:15.432Z,6.77
2018-08-25T08:01:49.311Z,8.17
2018-08-25T08:07:21.818Z,7.00
2018-08-25T08:09:51.864Z,5.47
2018-08-25T08:12:36.471Z,5.90
2018-08-25T08:15:06.639Z,5.80
2018-08-25T08:17:44.904Z,6.53
2018-08-25T08:20:14.544Z,5.80
2018-08-25T08:22:44.228Z,4.60
2018-08-25T08:25:13.834Z,4.93
2018-08-25T08:27:43.470Z,5.17
2018-08-25T08:30:13.141Z,5.40
2018-08-25T08:32:42.797Z,4.90
2018-08-25T08:35:12.467Z,5.00
2018-08-25T08:37:42.161Z,4.43
2018-08-25T08:40:11.773Z,3.53
2018-08-25T08:42:41.672Z,3.50
2018-08-25T08:45:12.410Z,3.73
2018-08-25T08:47:42.159Z,4.30
2018-08-25T08:50:11.882Z,3.77
2018-08-25T08:52:41.544Z,4.00
2018-08-25T08:55:11.183Z,3.93
2018-08-25T08:57:40.883Z,3.97
2018-08-25T09:00:10.558Z,4.30
2018-08-25T09:02:40.877Z,4.10
2018-08-25T09:05:10.550Z,4.10
2018-08-25T09:07:40.247Z,4.60
2018-08-25T09:10:09.935Z,4.50
2018-08-25T09:12:39.551Z,4.03
2018-08-25T09:15:09.267Z,5.13
2018-08-25T09:17:38.891Z,4.30
2018-08-25T09:20:08.581Z,5.10
2018-08-25T09:22:38.239Z,4.97
2018-08-25T09:25:07.983Z,4.17
2018-08-25T09:27:37.735Z,3.60
2018-08-25T09:30:08.135Z,3.60
2018-08-25T09:32:37.801Z,3.40
2018-08-25T09:35:07.856Z,3.30
2018-08-25T09:37:37.561Z,3.13
2018-08-25T09:40:07.441Z,3.10
2018-08-25T09:42:37.090Z,2.23
2018-08-25T09:45:07.074Z,2.17
2018-08-25T09:47:36.895Z,1.90
2018-08-25T09:50:07.233Z,1.60
2018-08-25T09:52:37.531Z,2.13
2018-08-25T09:55:08.023Z,2.23
2018-08-25T09:57:37.673Z,2.10
2018-08-25T10:00:07.414Z,2.40
2018-08-25T10:02:37.076Z,2.10
2018-08-25T10:05:07.861Z,2.07
2018-08-25T10:07:37.545Z,1.83
2018-08-25T10:10:07.808Z,2.03
2018-08-25T10:12:37.427Z,2.27
2018-08-25T10:15:07.357Z,1.70
2018-08-25T10:17:37.025Z,1.90
2018-08-25T10:20:06.850Z,1.90
2018-08-25T10:22:36.473Z,1.80
2018-08-25T10:25:06.371Z,1.57
2018-08-25T10:27:36.475Z,1.37
2018-08-25T10:30:07.263Z,1.67
2018-08-25T10:32:36.978Z,1.80
2018-08-25T10:35:06.648Z,1.50
2018-08-25T10:37:36.318Z,1.70
2018-08-25T10:40:06.066Z,1.83
2018-08-25T10:42:36.576Z,1.50
2018-08-25T10:45:07.047Z,1.73
2018-08-25T10:47:37.894Z,2.50
2018-08-25T10:50:07.589Z,2.10
2018-08-25T10:52:37.486Z,2.30
2018-08-25T10:55:07.278Z,1.57
2018-08-25T10:57:36.933Z,1.70
2018-08-25T11:00:07.186Z,1.73
2018-08-25T11:02:36.832Z,1.37
2018-08-25T11:05:07.218Z,0.80
2018-08-25T11:07:36.934Z,1.40
2018-08-25T11:10:06.814Z,1.33
2018-08-25T11:12:36.430Z,1.30
2018-08-25T11:15:06.670Z,1.50
2018-08-25T11:17:36.548Z,1.13
2018-08-25T11:20:06.303Z,1.10
2018-08-25T11:22:36.069Z,1.87
2018-08-25T11:25:05.794Z,1.50
2018-08-25T11:27:35.412Z,1.60
2018-08-25T11:30:09.413Z,1.67
2018-08-25T11:32:39.113Z,1.60
2018-08-25T11:35:08.803Z,1.03
2018-08-25T11:37:38.542Z,1.30
2018-08-25T11:40:10.091Z,1.40
2018-08-25T11:42:40.902Z,1.27
2018-08-25T11:45:10.627Z,1.60
2018-08-25T11:47:41.278Z,2.17
2018-08-25T11:50:11.194Z,2.10
2018-08-25T11:52:40.839Z,2.60
2018-08-25T11:55:10.487Z,2.00
2018-08-25T11:57:40.136Z,2.00
2018-08-25T12:00:10.753Z,2.03
2018-08-25T12:02:40.396Z,2.10
2018-08-25T12:05:10.023Z,1.90
2018-08-25T12:07:39.697Z,1.80
2018-08-25T12:10:09.963Z,2.17
2018-08-25T12:12:39.627Z,2.10
2018-08-25T12:15:09.298Z,2.20
2018-08-25T12:17:38.915Z,2.00
2018-08-25T12:20:09.842Z,2.07
2018-08-25T12:22:39.503Z,1.73
2018-08-25T12:25:09.234Z,1.60
2018-08-25T12:27:38.850Z,1.70
2018-08-25T12:30:08.871Z,1.60
2018-08-25T12:32:38.567Z,1.87
2018-08-25T12:35:08.217Z,2.03
2018-08-25T12:37:37.939Z,1.70
2018-08-25T12:40:07.958Z,1.50
2018-08-25T12:42:38.035Z,1.73
2018-08-25T12:45:07.751Z,1.33
2018-08-25T12:47:37.551Z,1.10
2018-08-25T12:50:07.228Z,1.23
2018-08-25T12:52:36.971Z,1.23
2018-08-25T12:55:06.759Z,1.40
2018-08-25T12:57:36.413Z,1.17
2018-08-25T13:00:06.882Z,1.07
2018-08-25T13:02:36.612Z,1.30
2018-08-25T13:05:06.444Z,1.23
2018-08-25T13:07:36.375Z,1.47
2018-08-25T13:10:06.487Z,1.30
2018-08-25T13:12:36.158Z,1.50
2018-08-25T13:15:07.161Z,1.60
2018-08-25T13:17:36.877Z,1.90
2018-08-25T13:20:06.576Z,2.00
2018-08-25T13:22:36.221Z,1.90
2018-08-25T13:25:06.011Z,1.60
2018-08-25T13:27:35.610Z,1.67
2018-08-25T13:30:05.492Z,1.60
2018-08-25T13:32:35.152Z,1.60
2018-08-25T13:35:04.824Z,1.50
2018-08-25T13:37:34.421Z,1.63
2018-08-25T13:40:04.156Z,1.50
2018-08-25T13:42:33.707Z,2.00
2018-08-25T13:45:04.007Z,1.30
2018-08-25T13:47:33.654Z,1.60
2018-08-25T13:50:03.279Z,1.80
2018-08-25T13:52:33.120Z,1.57
2018-08-25T13:55:02.731Z,1.90
2018-08-25T13:57:32.408Z,1.30
2018-08-25T14:00:02.384Z,1.50
2018-08-25T14:02:32.791Z,1.80
2018-08-25T14:05:03.480Z,1.70
2018-08-25T14:07:35.207Z,1.97
2018-08-25T14:10:04.891Z,2.00
2018-08-25T14:12:34.490Z,1.70
2018-08-25T14:15:04.436Z,1.97
2018-08-25T14:17:34.076Z,1.80
2018-08-25T14:20:03.931Z,1.47
2018-08-25T14:22:33.630Z,1.87
2018-08-25T14:25:03.306Z,2.00
2018-08-25T14:27:33.020Z,2.00
2018-08-25T14:30:02.652Z,2.00
2018-08-25T14:32:32.259Z,2.17
2018-08-25T14:35:01.887Z,2.17
2018-08-25T14:37:31.575Z,2.70
2018-08-25T14:40:01.216Z,2.83
2018-08-25T14:42:30.867Z,2.67
2018-08-25T14:45:00.528Z,2.63
2018-08-25T14:47:30.280Z,2.87
2018-08-25T14:49:59.901Z,3.70
2018-08-25T14:52:29.740Z,3.90
2018-08-25T14:54:59.355Z,4.03
2018-08-25T14:57:29.205Z,2.93
2018-08-25T14:59:58.900Z,2.80
2018-08-25T15:02:28.550Z,1.80
2018-08-25T15:04:58.191Z,1.50
2018-08-25T15:07:27.915Z,1.73
2018-08-25T15:09:57.642Z,1.47
2018-08-25T15:12:27.240Z,0.87
2018-08-25T15:14:56.928Z,1.07
2018-08-25T15:17:27.290Z,1.00
2018-08-25T15:19:56.913Z,1.07
2018-08-25T15:22:26.595Z,0.70
2018-08-25T15:24:56.225Z,0.77
2018-08-25T15:27:25.896Z,0.90
2018-08-25T15:29:55.531Z,1.07
2018-08-25T15:32:25.170Z,1.47
2018-08-25T15:34:54.834Z,1.50
2018-08-25T15:37:24.443Z,1.60
2018-08-25T15:39:54.709Z,1.63
2018-08-25T15:42:24.399Z,1.73
2018-08-25T15:44:57.121Z,1.83
2018-08-25T15:47:26.975Z,1.80
2018-08-25T15:49:56.736Z,1.37
2018-08-25T15:52:26.462Z,1.60
2018-08-25T15:54:56.118Z,1.50
2018-08-25T15:57:26.032Z,1.20
2018-08-25T16:00:02.998Z,1.90
2018-08-25T16:02:33.480Z,1.40
2018-08-25T16:05:03.148Z,1.50
2018-08-25T16:07:32.778Z,1.43
2018-08-25T16:10:07.941Z,1.50
2018-08-25T16:12:37.736Z,1.03
2018-08-25T16:15:07.424Z,1.20
2018-08-25T16:17:37.379Z,1.60
2018-08-25T16:20:07.229Z,1.40
2018-08-25T16:22:36.987Z,1.20
2018-08-25T16:25:07.353Z,1.47
2018-08-25T16:27:37.174Z,1.67
2018-08-25T16:30:07.232Z,1.80
2018-08-25T16:32:37.505Z,1.37
2018-08-25T16:35:07.239Z,1.90
2018-08-25T16:37:36.851Z,1.60
2018-08-25T16:40:06.547Z,1.33
2018-08-25T16:42:36.214Z,1.47
2018-08-25T16:45:05.916Z,0.93
2018-08-25T16:47:35.528Z,0.90
2018-08-25T16:50:05.253Z,1.30
2018-08-25T16:52:34.940Z,1.80
2018-08-25T16:55:04.678Z,1.20
2018-08-25T16:57:34.331Z,1.57
2018-08-25T17:00:04.015Z,1.00
2018-08-25T17:02:33.765Z,1.00
2018-08-25T17:05:03.410Z,1.27
2018-08-25T17:07:33.045Z,1.50
2018-08-25T17:10:03.338Z,1.77
2018-08-25T17:12:33.031Z,1.43
2018-08-25T17:15:02.700Z,1.03
2018-08-25T17:17:32.385Z,1.20
2018-08-25T17:20:02.061Z,0.90
2018-08-25T17:22:31.771Z,1.30
2018-08-25T17:25:01.922Z,1.20
2018-08-25T17:27:31.549Z,1.40
2018-08-25T17:30:01.186Z,1.40
2018-08-25T17:32:31.436Z,1.50
2018-08-25T17:35:01.321Z,1.70
2018-08-25T17:37:56.096Z,1.23
2018-08-25T17:40:27.066Z,1.20
2018-08-25T17:42:57.037Z,1.53
2018-08-25T17:45:26.752Z,1.00
2018-08-25T17:47:56.416Z,0.90
2018-08-25T17:50:26.437Z,1.03
2018-08-25T17:52:56.139Z,1.30
2018-08-25T17:55:25.940Z,1.10
2018-08-25T17:57:56.164Z,1.07
2018-08-25T18:00:29.199Z,1.13
2018-08-25T18:02:58.850Z,1.43
2018-08-25T18:05:28.600Z,1.83
2018-08-25T18:07:58.544Z,2.20
2018-08-25T18:10:28.212Z,1.43
2018-08-25T18:12:57.946Z,1.80
2018-08-25T18:15:29.143Z,2.63
2018-08-25T18:17:59.187Z,2.43
2018-08-25T18:20:30.599Z,1.80
2018-08-25T18:23:00.247Z,1.93
2018-08-25T18:25:31.925Z,1.90
2018-08-25T18:28:01.614Z,1.20
2018-08-25T18:30:31.307Z,1.20
2018-08-25T18:33:02.182Z,1.50
2018-08-25T18:35:33.344Z,1.57
2018-08-25T18:38:03.701Z,1.30
2018-08-25T18:40:36.284Z,1.33
2018-08-25T18:43:08.075Z,1.60
2018-08-25T18:45:38.675Z,1.40
2018-08-25T18:48:08.411Z,1.60
2018-08-25T18:50:40.529Z,1.77
2018-08-25T18:53:10.772Z,1.30
2018-08-25T18:55:40.362Z,0.90
2018-08-25T18:58:10.272Z,1.23
2018-08-25T19:00:40.206Z,1.00
2018-08-25T19:03:09.904Z,0.83
2018-08-25T19:05:39.542Z,1.30
2018-08-25T19:08:09.247Z,1.40
2018-08-25T19:10:39.243Z,1.47
2018-08-25T19:13:13.274Z,0.90
2018-08-25T19:15:42.973Z,1.17
2018-08-25T19:18:14.893Z,1.10
2018-08-25T19:20:45.425Z,1.30
2018-08-25T19:23:15.090Z,0.97
2018-08-25T19:25:44.763Z,1.10
2018-08-25T19:28:15.685Z,0.80
2018-08-25T19:30:45.543Z,1.30
2018-08-25T19:33:15.232Z,1.00
2018-08-25T19:35:44.975Z,1.30
2018-08-25T19:38:14.610Z,1.33
2018-08-25T19:40:44.767Z,1.40
2018-08-25T19:43:14.978Z,1.33
2018-08-25T19:45:44.762Z,0.87
2018-08-25T19:48:14.509Z,0.70
2018-08-25T19:50:44.657Z,0.80
2018-08-25T19:53:14.777Z,1.13
2018-08-25T19:55:44.819Z,1.03
2018-08-25T19:58:14.527Z,0.90
2018-08-25T20:00:44.319Z,1.10
2018-08-25T20:03:14.108Z,0.83
2018-08-25T20:05:44.352Z,1.03
2018-08-25T20:08:15.921Z,0.90
2018-08-25T20:10:45.970Z,0.80
2018-08-25T20:13:15.743Z,0.87
2018-08-25T20:15:45.603Z,1.00
2018-08-25T20:18:15.628Z,0.80
2018-08-25T20:20:45.533Z,1.13
2018-08-25T20:23:15.184Z,1.43
2018-08-25T20:25:45.349Z,1.00
2018-08-25T20:28:16.085Z,1.10
2018-08-25T20:30:46.420Z,0.90
2018-08-25T20:33:16.801Z,1.00
2018-08-25T20:35:48.046Z,1.00
2018-08-25T20:38:17.744Z,0.87
2018-08-25T20:40:52.714Z,1.03
2018-08-25T20:43:24.114Z,1.50
2018-08-25T20:45:54.997Z,0.93
2018-08-25T20:48:25.794Z,1.10
2018-08-25T20:50:55.568Z,0.83
2018-08-25T20:53:25.743Z,1.10
2018-08-25T20:55:55.356Z,1.30
2018-08-25T20:58:25.671Z,1.10
2018-08-25T21:01:00.483Z,1.10
2018-08-25T21:03:30.498Z,1.17
2018-08-25T21:06:00.150Z,1.27
2018-08-25T21:08:29.791Z,1.53
2018-08-25T21:10:59.451Z,1.47
2018-08-25T21:13:29.095Z,1.50
2018-08-25T21:15:58.740Z,1.27
2018-08-25T21:18:28.604Z,1.57
2018-08-25T21:20:58.292Z,1.40
2018-08-25T21:23:27.942Z,2.00
2018-08-25T21:25:58.138Z,1.60
2018-08-25T21:28:27.800Z,2.00
2018-08-25T21:30:57.489Z,1.60
2018-08-25T21:33:27.407Z,2.10
2018-08-25T21:35:57.678Z,1.97
2018-08-25T21:38:27.823Z,1.70
2018-08-25T21:40:57.525Z,1.83
2018-08-25T21:43:27.178Z,2.40
2018-08-25T21:45:56.886Z,2.07
2018-08-25T21:48:26.487Z,1.70
2018-08-25T21:50:56.192Z,1.97
2018-08-25T21:53:25.818Z,2.23
2018-08-25T21:55:55.474Z,2.10
2018-08-25T21:58:25.181Z,1.63
2018-08-25T22:00:56.492Z,2.13
2018-08-25T22:03:27.641Z,2.80
2018-08-25T22:05:57.910Z,2.20
2018-08-25T22:08:27.605Z,2.93
2018-08-25T22:10:57.256Z,2.13
2018-08-25T22:13:26.902Z,1.90
2018-08-25T22:15:56.534Z,2.07
2018-08-25T22:18:26.194Z,1.40
2018-08-25T22:20:55.879Z,2.00
2018-08-25T22:23:25.567Z,2.20
2018-08-25T22:25:55.236Z,2.50
2018-08-25T22:28:24.891Z,5.70
2018-08-25T22:30:54.610Z,4.53
2018-08-25T22:33:24.265Z,3.80
2018-08-25T22:35:53.958Z,5.73
2018-08-25T22:38:23.649Z,4.00
2018-08-25T22:40:53.345Z,3.10
2018-08-25T22:43:23.020Z,2.67
2018-08-25T22:45:52.663Z,2.53
2018-08-25T22:48:22.354Z,2.67
2018-08-25T22:50:51.991Z,2.30
2018-08-25T22:53:21.674Z,2.67
2018-08-25T22:55:51.335Z,2.33
2018-08-25T22:58:20.968Z,2.60
2018-08-25T23:00:50.660Z,2.70
2018-08-25T23:03:20.302Z,1.93
2018-08-25T23:05:49.946Z,2.30
2018-08-25T23:08:19.674Z,2.13
2018-08-25T23:10:49.321Z,2.30
2018-08-25T23:13:18.974Z,1.93
2018-08-25T23:15:48.636Z,2.43
2018-08-25T23:18:18.315Z,1.60
2018-08-25T23:20:47.966Z,2.10
2018-08-25T23:23:17.678Z,2.20
2018-08-25T23:25:47.346Z,2.33
2018-08-25T23:28:16.986Z,2.30
2018-08-25T23:30:46.651Z,2.10
2018-08-25T23:33:16.720Z,2.20
2018-08-25T23:35:46.342Z,2.43
2018-08-25T23:38:16.279Z,1.90
2018-08-25T23:40:46.019Z,1.77
2018-08-25T23:43:15.655Z,1.73
2018-08-25T23:45:45.335Z,1.80
2018-08-25T23:48:15.115Z,1.80
2018-08-25T23:50:44.710Z,1.60
2018-08-25T23:53:14.377Z,1.67
2018-08-25T23:55:44.043Z,2.50
2018-08-25T23:58:13.678Z,1.90
